Impacts TAF Board INFO
FOR SITUATIONAL AWARENESS. NOT TO BE USED FOR FLIGHT PLANNING PURPOSES.
IDs:

KIAD - Washington/Dulles In, VA, US

Issued at 1720 UTC 16 Jan 2018
Updated at 2044 UTC 16 Jan 2018
Potential Impact None Slight Moderate High
Time1952Z 16/21Z 16/22Z 16/23Z 17/00Z 17/01Z 17/02Z 17/03Z 17/04Z 17/05Z 17/06Z 17/07Z 17/08Z 17/09Z>>
Type OBS PRVL PRVL PRVL PRVL PRVL PRVL PRVL PRVL PRVL PRVL PRVL PRVL PRVL
VIS 10 >6 >6 >6 >6 >6 >6 5 5 5 2 2 2 2
CIG 240 70 70 70 70 70 70 40 40 40 15 15 15 15
Cover BKN BKN BKN BKN BKN BKN BKN OVC OVC OVC BKN BKN BKN BKN
FltCat VFR VFR VFR VFR VFR VFR VFR MVFR MVFR MVFR IFR IFR IFR IFR
WX -- -- -- -- -- -- -- -SN -SN -SN -SN -SN -SN -SN
WDir VRB VRB VRB VRB VRB VRB VRB VRB VRB VRB 340 340 340 340
WSpd 0 3 3 3 3 3 3 3 3 3 5 5 5 5
WGst -- -- -- -- -- -- -- -- -- -- -- -- -- --

Raw TAF
KIAD 161720Z 1618/1724 VRB03KT P6SM BKN070
  FM170300 VRB03KT 5SM -SN OVC040
  FM170600 34005KT 2SM -SN SCT008 BKN015
  FM171200 33012KT P6SM OVC035
  FM171700 32014G21KT P6SM SCT150


Raw METAR
KIAD 161952Z 00000KT 10SM FEW065 SCT140 BKN240 04/M06 A3036 RMK AO2 SLP283 T00391056
KIAD 161852Z 00000KT 10SM FEW040 BKN130 BKN250 03/M06 A3038 RMK AO2 SLP290 T00281056
KIAD 161752Z VRB05KT 10SM FEW020 BKN140 BKN240 02/M04 A3040 RMK AO2 SLP298 T00171044 10022 21039 58025

METAR Board
Radar Display
Forecast Discussion

FOR SITUATIONAL AWARENESS. NOT TO BE USED FOR FLIGHT PLANNING PURPOSES.